Nearby METAR Reports

 

KMTN - Baltimore/Martin, Maryland, USA
Distance from station: SSE 8mi, 13km
Updated: Fri, 24-Oct-2014 11:45am EDT
Partly cloudy
Partly cloudy
 Wind from WNW
Wind: WNW 18 mph , 30 km/h
Temperature: 64°F , 18°C
Dew Point: 48°F , 9°C
Humidity: 56%
Barometer: 29.94 inHg , 1013.9 hPa
Clouds: Partly cloudy
Visibility: 10 miles , 16 km
Cloud details: Partly cloudy 20000 ft
2014/10/24 15:45 KMTN 241545Z 30016KT 10SM SCT200 18/09 A2994
KDMH - Baltimore/Dwntwn, Maryland, USA
Distance from station: SW 12mi, 19km
Updated: Fri, 24-Oct-2014 11:54am EDT

 
Temperature: 64°F , 18°C
Dew Point: 39°F , 4°C
Humidity: 40%
Barometer: 29.95 inHg , 1014.2 hPa
2014/10/24 15:54 KDMH 241554Z AUTO 18/04 A2995 RMK AO1 SLP140 T01780044
 
KBWI - Balto/Wash Intl, Maryland, USA
Distance from station: SSW 20mi, 33km
Updated: Fri, 24-Oct-2014 9:54am EDT
NOT Current
Partly cloudy
Partly cloudy
 Wind from NW
Wind: NW 20 mph , 31 km/h, Gust: 28 mph , 44 km/h
Temperature: 59°F , 15°C
Dew Point: 43°F , 6°C
Humidity: 55%
Barometer: 29.95 inHg , 1014.2 hPa
Clouds: Partly cloudy
Visibility: 10 miles , 16 km
Cloud details: Few Clouds 16000 ft
Partly cloudy 25000 ft
2014/10/24 13:54 KBWI 241354Z 31017G24KT 10SM FEW160 SCT250 15/06 A2995 RMK AO2 SLP141 T01500056
KDMW - Carroll Cnty, Maryland, USA
Distance from station: WNW 30mi, 48km
Updated: Fri, 24-Oct-2014 12:35pm EDT
Clear
Clear
 Wind from W
Wind: W 9 mph , 15 km/h
Temperature: 61°F , 16°C
Dew Point: 39°F , 4°C
Humidity: 45%
Barometer: 29.95 inHg , 1014.2 hPa
Clouds: Clear
Visibility: 10 miles , 16 km
2014/10/24 16:35 KDMW 241635Z AUTO 27008KT 10SM CLR 16/04 A2995 RMK AO2
 
KNAK - Annapolis/Naval, Maryland, USA
Distance from station: S 30mi, 48km
Updated: Fri, 24-Oct-2014 11:54am EDT
Clear
Clear
 Wind from NW
Wind: NW 16 mph , 26 km/h, Gust: 23 mph , 37 km/h
Temperature: 63°F , 17°C
Dew Point: 43°F , 6°C
Humidity: 49%
Barometer: 29.93 inHg , 1013.5 hPa
Clouds: Clear
Visibility: 10 miles , 16 km
2014/10/24 15:54 KNAK 241554Z AUTO 32014G20KT 10SM CLR 17/06 A2993 RMK AO2 SLP138 T01670061
KW29 - Stevensville, Maryland, USA
Distance from station: SSE 31mi, 50km
Updated: Fri, 24-Oct-2014 12:37pm EDT

 Wind from NW
Wind: NW 12 mph , 19 km/h
Temperature: 63°F , 17°C
Dew Point: 43°F , 6°C
Humidity: 49%
Barometer: 29.91 inHg , 1012.9 hPa
Visibility: 10 miles , 16 km
2014/10/24 16:37 KW29 241637Z AUTO 31010KT 10SM 17/06 A2991 RMK AO1
 
KCGS - College Park, Maryland, USA
Distance from station: SW 38mi, 61km
Updated: Fri, 24-Oct-2014 12:35pm EDT
Clear
Clear
 Wind from NW
Wind: NW 7 mph , 11 km/h, Gust: 16 mph , 26 km/h
Temperature: 63°F , 17°C
Dew Point: 43°F , 6°C
Humidity: 49%
Barometer: 29.95 inHg , 1014.2 hPa
Clouds: Clear
Visibility: 10 miles , 16 km
2014/10/24 16:35 KCGS 241635Z AUTO 31006G14KT 10SM CLR 17/06 A2995 RMK AO1
KGAI - Gaithersburg, Maryland, USA
Distance from station: WSW 40mi, 65km
Updated: Fri, 24-Oct-2014 12:35pm EDT
Clear
Clear
 Wind from WNW
Wind: WNW 15 mph , 24 km/h, Gust: 21 mph , 33 km/h
Temperature: 61°F , 16°C
Dew Point: 45°F , 7°C
Humidity: 55%
Barometer: 29.99 inHg , 1015.6 hPa
Clouds: Clear
Visibility: 10 miles , 16 km
2014/10/24 16:35 KGAI 241635Z 29013G18KT 10SM CLR 16/07 A2999 RMK AO1
 
KTHV - York, Pennsylvania, USA
Distance from station: NNW 40mi, 65km
Updated: Fri, 24-Oct-2014 11:53am EDT
Clear
Clear
 Wind from WNW
Wind: WNW 18 mph , 30 km/h, Gust: 24 mph , 39 km/h
Temperature: 63°F , 17°C
Dew Point: 37°F , 3°C
Humidity: 39%
Barometer: 29.93 inHg , 1013.5 hPa
Clouds: Clear
Visibility: 10 miles , 16 km
2014/10/24 15:53 KTHV 241553Z AUTO 30016G21KT 10SM CLR 17/03 A2993 RMK AO2 SLP138 T01720028
KFDK - Frederick, Maryland, USA
Distance from station: W 47mi, 75km
Updated: Fri, 24-Oct-2014 12:47pm EDT
Clear
Clear
 Wind from NW
Wind: NW 8 mph , 13 km/h
Temperature: 66°F , 19°C
Dew Point: 39°F , 4°C
Humidity: 37%
Barometer: 29.99 inHg , 1015.6 hPa
Clouds: Clear
Visibility: 10 miles , 16 km
2014/10/24 16:47 KFDK 241647Z 31007KT 10SM SKC 19/04 A2999
 
KESN - Easton/Newnam, Maryland, USA
Distance from station: SSE 48mi, 78km
Updated: Fri, 24-Oct-2014 11:59am EDT
Partly cloudy
Partly cloudy
 Wind from NNW
Wind: NNW 17 mph , 28 km/h, Gust: 28 mph , 44 km/h
Temperature: 64°F , 18°C
Dew Point: 46°F , 8°C
Humidity: 52%
Barometer: 29.95 inHg , 1014.2 hPa
Clouds: Partly cloudy
Visibility: 10 miles , 16 km
Cloud details: Partly cloudy 6000 ft
2014/10/24 15:59 KESN 241559Z 33015G24KT 10SM SCT060 18/08 A2995
KDCA - Washington/Natl, Washington D.c., USA
Distance from station: SW 49mi, 79km
Updated: Fri, 24-Oct-2014 11:52am EDT
Overcast
Overcast
 Wind from NW
Wind: NW 9 mph , 15 km/h
Temperature: 64°F , 18°C
Dew Point: 43°F , 6°C
Humidity: 46%
Barometer: 29.98 inHg , 1015.2 hPa
Clouds: Overcast
Visibility: 10 miles , 16 km
Cloud details: Overcast 25000 ft
2014/10/24 15:52 KDCA 241552Z 32008KT 10SM OVC250 18/06 A2998 RMK AO2 SLP150 T01780061
 
KLNS - Lancaster, Pennsylvania, USA
Distance from station: N 49mi, 79km
Updated: Fri, 24-Oct-2014 11:53am EDT
Few Clouds
Few Clouds
 Wind from NW
Wind: NW 15 mph , 24 km/h, Gust: 22 mph , 35 km/h
Temperature: 63°F , 17°C
Dew Point: 45°F , 7°C
Humidity: 52%
Barometer: 29.92 inHg , 1013.2 hPa
Clouds: Few Clouds
Visibility: 10 miles , 16 km
Cloud details: Few Clouds 4500 ft
2014/10/24 15:53 KLNS 241553Z 32013G19KT 10SM FEW045 17/07 A2992 RMK AO2 SLP130 T01720067
KILG - Wilmington, Delaware, USA
Distance from station: ENE 50mi, 81km
Updated: Fri, 24-Oct-2014 11:51am EDT
Clear
Clear
 Wind from NNW
Wind: NNW 21 mph , 33 km/h, Gust: 28 mph , 44 km/h
Temperature: 64°F , 18°C
Dew Point: 45°F , 7°C
Humidity: 49%
Barometer: 29.89 inHg , 1012.2 hPa
Clouds: Clear
Visibility: 10 miles , 16 km
2014/10/24 15:51 KILG 241551Z 34018G24KT 10SM CLR 18/07 A2989 RMK AO2 PK WND 33026/1502 SLP121 T01830067